Time;durP1;ratioP1;P1;durP2;ratioP2;P2;SDS_P1;SDS_P2;PMS_P1;PMS_P2;Temp;Humidity;BMP_temperature;BMP_pressure;BME280_temperature;BME280_humidity;BME280_pressure;Samples;Min_cycle;Max_cycle;Signal;HPM_P1;HPM_P2
2022/11/24 00:01:54;;;;;;;1.45;0.20;;;24.40;79.10;;;;;;5065332;28;20193;-82
2022/11/24 00:04:25;;;;;;;1.73;0.40;;;24.50;79.60;;;;;;5066410;28;20220;-81
2022/11/24 00:06:59;;;;;;;0.32;0.32;;;24.40;77.10;;;;;;5058408;28;20195;-81
2022/11/24 00:09:32;;;;;;;1.67;0.60;;;24.50;77.30;;;;;;5063331;28;20216;-83
2022/11/24 00:12:03;;;;;;;1.38;0.57;;;24.50;76.80;;;;;;5051888;28;20287;-83
2022/11/24 00:14:34;;;;;;;0.17;0.17;;;24.50;76.10;;;;;;5069389;28;20253;-82
2022/11/24 00:17:05;;;;;;;0.50;0.50;;;24.70;76.60;;;;;;5070186;28;20196;-82
2022/11/24 00:19:36;;;;;;;2.47;0.30;;;24.70;75.30;;;;;;5063256;28;20200;-82
2022/11/24 00:22:07;;;;;;;0.73;0.40;;;24.70;75.80;;;;;;5062766;28;20283;-83
2022/11/24 00:24:40;;;;;;;2.17;0.20;;;24.80;76.20;;;;;;5060678;28;20197;-83
2022/11/24 00:27:11;;;;;;;0.20;0.20;;;25.00;76.80;;;;;;5065768;28;20587;-82
2022/11/24 00:29:42;;;;;;;0.50;0.30;;;25.20;74.60;;;;;;5065267;28;20227;-82
2022/11/24 00:32:13;;;;;;;0.50;0.20;;;25.20;75.10;;;;;;5062068;28;20192;-81
2022/11/24 00:34:44;;;;;;;1.13;0.50;;;25.30;73.50;;;;;;5061587;28;20728;-82
2022/11/24 00:37:15;;;;;;;0.75;0.20;;;25.50;73.80;;;;;;5059388;28;20280;-83
2022/11/24 00:39:47;;;;;;;0.20;0.17;;;25.40;71.90;;;;;;5065753;28;20210;-83
2022/11/24 00:42:19;;;;;;;0.73;0.40;;;25.50;72.60;;;;;;5057201;28;20189;-82
2022/11/24 00:44:49;;;;;;;2.20;0.50;;;25.60;74.60;;;;;;5060524;28;20551;-82
2022/11/24 00:47:20;;;;;;;0.73;0.43;;;25.70;69.80;;;;;;5059547;28;20517;-82
2022/11/24 00:49:52;;;;;;;1.60;0.52;;;25.80;71.60;;;;;;5063898;28;20231;-82
2022/11/24 00:52:23;;;;;;;3.03;0.40;;;25.90;70.80;;;;;;5058682;28;20533;-82
2022/11/24 00:54:56;;;;;;;1.52;0.30;;;25.80;70.40;;;;;;5071140;28;20242;-81
2022/11/24 00:57:27;;;;;;;3.72;1.10;;;25.90;71.70;;;;;;5067831;28;20200;-83
2022/11/24 00:59:58;;;;;;;2.25;1.00;;;25.90;77.40;;;;;;5067557;28;20671;-82
2022/11/24 01:02:30;;;;;;;1.90;0.98;;;25.90;79.80;;;;;;5066530;28;20270;-82
2022/11/24 01:05:02;;;;;;;1.88;1.02;;;26.10;80.10;;;;;;5061851;28;20212;-82
2022/11/24 01:07:33;;;;;;;1.92;1.27;;;26.20;79.70;;;;;;5060053;28;21247;-81
2022/11/24 01:10:06;;;;;;;2.70;1.35;;;26.30;78.90;;;;;;5064204;28;20672;-81
2022/11/24 01:12:38;;;;;;;1.58;1.30;;;26.30;78.80;;;;;;5066053;28;20601;-81
2022/11/24 01:15:09;;;;;;;2.92;1.40;;;26.30;78.40;;;;;;5068796;28;20207;-81
2022/11/24 01:17:40;;;;;;;3.78;1.30;;;26.20;79.10;;;;;;5074832;28;20251;-82
2022/11/24 01:20:12;;;;;;;3.20;1.70;;;26.20;80.20;;;;;;5059869;28;20230;-80
2022/11/24 01:22:43;;;;;;;4.75;1.70;;;26.30;82.50;;;;;;5065238;28;20200;-80
2022/11/24 01:25:16;;;;;;;2.47;1.40;;;26.40;83.60;;;;;;5069391;28;20203;-80
2022/11/24 01:27:47;;;;;;;4.13;1.55;;;26.50;83.50;;;;;;5061012;28;20215;-81
2022/11/24 01:30:17;;;;;;;1.95;1.10;;;26.60;82.80;;;;;;5063374;28;20230;-81
2022/11/24 01:32:49;;;;;;;3.95;1.30;;;26.50;80.90;;;;;;5064099;28;20196;-81
2022/11/24 01:35:20;;;;;;;2.63;1.00;;;26.30;82.00;;;;;;5065228;28;20197;-81
2022/11/24 01:37:50;;;;;;;2.88;1.27;;;26.30;83.70;;;;;;5060128;28;20219;-81
2022/11/24 01:40:23;;;;;;;4.88;1.40;;;26.30;83.40;;;;;;5068028;28;20665;-81
2022/11/24 01:42:55;;;;;;;3.03;1.60;;;26.60;83.50;;;;;;5069740;28;20211;-81
2022/11/24 01:45:42;;;;;;;3.92;1.90;;;26.70;81.60;;;;;;5064200;28;20203;-81
2022/11/24 01:48:19;;;;;;;7.68;1.77;;;26.40;83.30;;;;;;5066253;28;20681;-80
2022/11/24 01:50:54;;;;;;;3.00;1.60;;;26.30;85.50;;;;;;5067299;28;20199;-81
2022/11/24 01:53:26;;;;;;;3.33;1.60;;;26.30;87.30;;;;;;5069630;28;20239;-81
2022/11/24 01:55:59;;;;;;;4.03;1.50;;;26.40;88.10;;;;;;5063768;28;20205;-80
2022/11/24 01:58:32;;;;;;;3.88;1.90;;;26.40;89.60;;;;;;5049659;28;20209;-81
2022/11/24 02:01:03;;;;;;;4.82;1.10;;;26.50;88.10;;;;;;5050428;28;20200;-82
2022/11/24 02:03:37;;;;;;;3.08;1.02;;;26.60;88.80;;;;;;5050250;28;20196;-82
2022/11/24 02:06:10;;;;;;;2.10;0.70;;;26.50;89.10;;;;;;5058882;28;20195;-82
2022/11/24 02:08:46;;;;;;;2.08;0.88;;;26.40;88.10;;;;;;5068835;28;20196;-82
2022/11/24 02:11:19;;;;;;;4.25;0.93;;;26.40;90.40;;;;;;5069832;28;20606;-82
2022/11/24 02:13:51;;;;;;;2.40;0.77;;;26.10;90.30;;;;;;5070149;28;20214;-82
2022/11/24 02:16:23;;;;;;;3.45;0.63;;;26.00;90.60;;;;;;5063411;28;20298;-81
2022/11/24 02:18:54;;;;;;;3.08;0.80;;;25.90;90.70;;;;;;5068729;28;20208;-82
2022/11/24 02:21:25;;;;;;;2.47;0.80;;;25.80;90.60;;;;;;5072097;28;20709;-82
2022/11/24 02:24:05;;;;;;;3.50;0.90;;;25.80;91.50;;;;;;5052000;28;20200;-81
2022/11/24 02:26:43;;;;;;;3.30;0.85;;;25.90;92.30;;;;;;5063466;28;20196;-81
2022/11/24 02:29:15;;;;;;;4.45;1.00;;;26.20;92.00;;;;;;5056087;28;20238;-81
2022/11/24 02:31:49;;;;;;;2.97;0.85;;;26.20;91.40;;;;;;5061313;28;20215;-82
2022/11/24 02:34:20;;;;;;;2.35;0.77;;;26.10;91.50;;;;;;5062193;28;20198;-80
2022/11/24 02:36:51;;;;;;;3.15;0.68;;;26.00;91.70;;;;;;5071030;28;20330;-80
2022/11/24 02:39:25;;;;;;;4.40;0.90;;;25.90;92.00;;;;;;5060027;28;20208;-80
2022/11/24 02:42:00;;;;;;;5.35;1.13;;;25.90;93.40;;;;;;5066244;28;20210;-81
2022/11/24 02:44:37;;;;;;;3.95;1.10;;;25.90;94.30;;;;;;5075632;28;20204;-81
2022/11/24 02:47:09;;;;;;;3.38;1.00;;;25.90;94.80;;;;;;5068035;28;20223;-80
2022/11/24 02:49:41;;;;;;;3.25;1.00;;;26.10;95.80;;;;;;5065516;28;20228;-80
2022/11/24 02:52:12;;;;;;;5.68;1.25;;;26.00;94.40;;;;;;5070477;28;20204;-81
2022/11/24 02:54:42;;;;;;;2.53;0.80;;;26.10;94.20;;;;;;5072732;28;20314;-81
2022/11/24 02:57:15;;;;;;;3.08;0.95;;;26.30;94.40;;;;;;5069261;28;20192;-82
2022/11/24 02:59:47;;;;;;;1.88;0.80;;;26.40;93.00;;;;;;5063860;28;20282;-81
2022/11/24 03:02:17;;;;;;;1.95;0.80;;;26.60;91.80;;;;;;5059386;28;20270;-82
2022/11/24 03:04:48;;;;;;;4.20;0.70;;;26.80;91.50;;;;;;5058051;28;20201;-81
2022/11/24 03:07:19;;;;;;;2.40;0.73;;;27.00;91.80;;;;;;5067063;28;20591;-80
2022/11/24 03:09:50;;;;;;;2.22;0.75;;;27.10;91.00;;;;;;5062047;28;20215;-81
2022/11/24 03:12:22;;;;;;;3.97;0.80;;;27.30;90.00;;;;;;5070822;28;20204;-83
2022/11/24 03:14:53;;;;;;;1.20;0.60;;;27.30;87.50;;;;;;5055928;28;20652;-82
2022/11/24 03:17:24;;;;;;;4.95;0.88;;;27.30;85.80;;;;;;5063237;28;20196;-81
2022/11/24 03:19:54;;;;;;;6.95;0.80;;;27.10;89.50;;;;;;5060695;28;20239;-82
2022/11/24 03:22:26;;;;;;;3.28;0.90;;;27.30;88.90;;;;;;5072694;28;20212;-82
2022/11/24 03:24:57;;;;;;;2.83;0.75;;;27.40;88.10;;;;;;5068738;28;20222;-82
2022/11/24 03:27:31;;;;;;;2.72;0.60;;;27.40;87.00;;;;;;5072403;28;20192;-83
2022/11/24 03:30:02;;;;;;;3.00;0.75;;;27.50;85.70;;;;;;5071036;28;20306;-82
2022/11/24 03:32:33;;;;;;;3.55;0.95;;;27.40;86.20;;;;;;5071159;28;20196;-81
2022/11/24 03:35:04;;;;;;;5.20;0.90;;;27.20;87.20;;;;;;5056477;28;20212;-82
2022/11/24 03:37:34;;;;;;;2.70;0.80;;;27.30;86.10;;;;;;5055355;28;20231;-82
2022/11/24 03:40:05;;;;;;;3.95;0.80;;;27.40;86.40;;;;;;5065007;28;20219;-82
2022/11/24 03:42:38;;;;;;;3.42;0.98;;;27.60;85.90;;;;;;5062573;28;20225;-82
2022/11/24 03:45:11;;;;;;;3.35;1.02;;;27.50;85.10;;;;;;5057968;28;20296;-82
2022/11/24 03:47:42;;;;;;;1.67;0.80;;;27.60;85.40;;;;;;5059784;28;20208;-82
2022/11/24 03:50:13;;;;;;;4.32;0.80;;;27.80;85.60;;;;;;5069383;28;20353;-83
2022/11/24 03:52:44;;;;;;;4.32;0.95;;;27.90;82.60;;;;;;5064748;28;20282;-82
2022/11/24 03:55:14;;;;;;;2.88;0.70;;;27.70;84.30;;;;;;5063002;28;20649;-82
2022/11/24 03:57:48;;;;;;;1.73;0.80;;;27.60;84.60;;;;;;5068592;28;20231;-82
2022/11/24 04:00:21;;;;;;;1.48;0.63;;;27.50;85.50;;;;;;5065588;28;20620;-83
2022/11/24 04:02:53;;;;;;;2.67;0.75;;;27.40;87.40;;;;;;5054853;28;20215;-80
2022/11/24 04:05:24;;;;;;;3.15;0.90;;;27.40;87.70;;;;;;5053124;28;20204;-82
2022/11/24 04:08:01;;;;;;;2.60;0.80;;;27.50;87.50;;;;;;5056460;28;20323;-82
2022/11/24 04:10:33;;;;;;;2.50;0.80;;;27.70;88.60;;;;;;5072115;28;20223;-82
2022/11/24 04:13:05;;;;;;;4.00;1.00;;;27.50;86.60;;;;;;5061961;28;20195;-82
2022/11/24 04:15:36;;;;;;;4.00;0.93;;;27.70;87.40;;;;;;5059101;28;20207;-82
2022/11/24 04:18:07;;;;;;;4.25;0.90;;;27.70;88.90;;;;;;5051674;28;20215;-81
2022/11/24 04:20:39;;;;;;;3.85;0.82;;;27.70;89.70;;;;;;5064374;28;20602;-82
2022/11/24 04:23:10;;;;;;;4.22;0.70;;;27.50;90.30;;;;;;5070082;28;20210;-81
2022/11/24 04:25:42;;;;;;;3.05;0.80;;;27.50;90.30;;;;;;5078722;28;20219;-82
2022/11/24 04:28:14;;;;;;;3.53;0.65;;;27.30;91.20;;;;;;5066888;28;20697;-82
2022/11/24 04:30:45;;;;;;;2.80;0.70;;;27.30;90.60;;;;;;5065804;28;20220;-82
2022/11/24 04:33:16;;;;;;;3.53;0.75;;;27.30;90.70;;;;;;5054707;28;20196;-81
2022/11/24 04:35:47;;;;;;;3.85;0.80;;;27.60;91.20;;;;;;5052575;28;20550;-81
2022/11/24 04:38:18;;;;;;;4.78;1.20;;;27.50;92.10;;;;;;5054697;28;20203;-81
2022/11/24 04:40:49;;;;;;;1.92;0.70;;;27.30;92.90;;;;;;5065309;28;20198;-81
2022/11/24 04:43:22;;;;;;;4.88;1.30;;;27.50;94.50;;;;;;5067743;28;20194;-82
2022/11/24 04:45:54;;;;;;;2.65;0.77;;;27.40;94.70;;;;;;5064575;28;20211;-82
2022/11/24 04:48:24;;;;;;;4.28;0.80;;;27.60;94.00;;;;;;5064220;28;20196;-81
2022/11/24 04:50:55;;;;;;;5.10;0.82;;;27.50;93.60;;;;;;5064094;28;20705;-82
2022/11/24 04:53:26;;;;;;;3.55;0.90;;;27.30;95.00;;;;;;5063632;28;20229;-83
2022/11/24 04:55:57;;;;;;;3.28;0.77;;;27.60;95.70;;;;;;5055678;28;20242;-83
2022/11/24 04:58:31;;;;;;;6.95;0.95;;;27.70;95.60;;;;;;5063263;28;20687;-82
2022/11/24 05:01:02;;;;;;;3.60;0.98;;;27.60;95.10;;;;;;5069278;28;20290;-83
2022/11/24 05:03:33;;;;;;;1.95;0.82;;;27.90;93.30;;;;;;5078365;28;20302;-83
2022/11/24 05:06:05;;;;;;;1.75;0.50;;;27.90;91.20;;;;;;5071131;28;20596;-84
2022/11/24 05:08:35;;;;;;;2.35;0.75;;;28.00;91.20;;;;;;5071081;28;20224;-85
2022/11/24 05:11:08;;;;;;;4.07;0.88;;;28.10;91.50;;;;;;5069528;28;20231;-84
2022/11/24 05:13:42;;;;;;;5.25;0.95;;;28.10;91.80;;;;;;5054499;28;20311;-84
2022/11/24 05:16:13;;;;;;;3.55;0.90;;;27.90;93.50;;;;;;5054404;28;20212;-84
2022/11/24 05:18:45;;;;;;;5.63;1.00;;;28.00;95.40;;;;;;5069847;28;20262;-84
2022/11/24 05:21:15;;;;;;;3.10;0.93;;;27.90;96.90;;;;;;5069683;28;20228;-84
2022/11/24 05:23:46;;;;;;;3.53;0.80;;;27.70;97.80;;;;;;5060252;28;20192;-84
2022/11/24 05:26:17;;;;;;;3.35;0.93;;;27.90;98.00;;;;;;5081230;28;20258;-84
2022/11/24 05:28:50;;;;;;;8.02;1.13;;;27.90;99.60;;;;;;5063494;28;20196;-84
2022/11/24 05:31:22;;;;;;;6.00;1.08;;;28.00;98.90;;;;;;5052495;28;20259;-83
2022/11/24 05:33:52;;;;;;;4.13;0.90;;;28.10;99.30;;;;;;5070817;28;20260;-84
2022/11/24 05:39:11;;;;;;;4.00;0.75;;;28.40;98.80;;;;;;5066765;28;20579;-84
2022/11/24 05:41:43;;;;;;;4.63;1.02;;;28.60;99.30;;;;;;5070479;28;20200;-84
2022/11/24 05:44:16;;;;;;;5.28;1.30;;;28.40;99.60;;;;;;5070644;28;20199;-84
2022/11/24 05:46:47;;;;;;;4.57;1.10;;;28.50;99.90;;;;;;5055421;28;20208;-84
2022/11/24 05:49:18;;;;;;;7.20;1.10;;;28.60;99.90;;;;;;5067146;28;20291;-84
2022/11/24 05:51:48;;;;;;;5.07;1.10;;;28.80;99.70;;;;;;5069648;28;20704;-84
2022/11/24 05:54:19;;;;;;;5.22;1.17;;;28.60;99.90;;;;;;5069172;28;20586;-84
2022/11/24 05:56:50;;;;;;;3.45;0.80;;;28.80;99.90;;;;;;5070348;28;20207;-84
2022/11/24 05:59:23;;;;;;;3.03;1.02;;;28.90;98.90;;;;;;5065629;28;20196;-83
2022/11/24 06:01:55;;;;;;;4.82;1.00;;;28.50;99.90;;;;;;5059836;28;20594;-84
2022/11/24 06:04:25;;;;;;;4.25;1.10;;;28.70;99.90;;;;;;5060017;28;20216;-83
2022/11/24 06:06:57;;;;;;;2.45;0.88;;;28.70;99.90;;;;;;5064565;28;20226;-81
2022/11/24 06:09:28;;;;;;;3.88;1.00;;;28.70;99.90;;;;;;5072247;28;20199;-81
2022/11/24 06:11:58;;;;;;;3.88;1.02;;;28.70;99.90;;;;;;5073971;28;20233;-82
2022/11/24 06:14:31;;;;;;;5.28;1.30;;;28.70;99.90;;;;;;5065009;28;20196;-81
2022/11/24 06:17:02;;;;;;;3.47;0.98;;;28.60;99.90;;;;;;5058819;28;20319;-81
2022/11/24 06:19:33;;;;;;;4.75;1.13;;;28.70;99.90;;;;;;5061894;28;20206;-81
2022/11/24 06:22:04;;;;;;;3.42;1.10;;;28.80;99.90;;;;;;5073127;28;20200;-82
2022/11/24 06:24:35;;;;;;;3.78;0.93;;;28.60;99.90;;;;;;5072353;28;20192;-80
2022/11/24 06:27:06;;;;;;;2.75;1.00;;;28.60;99.90;;;;;;5074669;28;20261;-81
2022/11/24 06:29:39;;;;;;;5.70;1.27;;;28.40;99.90;;;;;;5083971;28;20290;-81
2022/11/24 06:32:11;;;;;;;4.97;0.98;;;28.70;99.90;;;;;;5062374;28;20631;-81
2022/11/24 06:34:42;;;;;;;5.70;1.00;;;29.00;99.50;;;;;;5057015;28;20200;-80
2022/11/24 06:37:13;;;;;;;3.75;1.10;;;29.20;98.90;;;;;;5056776;28;20311;-81
2022/11/24 06:39:44;;;;;;;3.35;0.90;;;29.00;98.50;;;;;;5064183;28;20685;-80
2022/11/24 06:42:17;;;;;;;4.97;1.20;;;29.40;97.90;;;;;;5061280;28;20196;-80
2022/11/24 06:44:51;;;;;;;4.13;0.88;;;29.30;98.20;;;;;;5058942;28;20223;-81
2022/11/24 06:47:23;;;;;;;4.45;1.00;;;29.00;97.90;;;;;;5055863;28;20204;-81
2022/11/24 06:49:54;;;;;;;3.90;1.08;;;28.70;98.00;;;;;;5068017;28;20201;-80
2022/11/24 06:52:25;;;;;;;4.88;1.40;;;29.10;98.60;;;;;;5061830;28;20227;-80
2022/11/24 06:54:56;;;;;;;4.93;1.25;;;29.10;99.00;;;;;;5056418;28;20264;-81
2022/11/24 06:57:28;;;;;;;7.90;1.48;;;29.40;97.70;;;;;;5053672;28;20220;-81
2022/11/24 07:00:01;;;;;;;6.38;1.23;;;29.20;98.00;;;;;;5069932;28;20211;-80
2022/11/24 07:02:33;;;;;;;4.75;1.40;;;28.90;98.30;;;;;;5064689;28;20307;-81
2022/11/24 07:05:04;;;;;;;5.00;1.30;;;28.50;99.40;;;;;;5057474;28;20208;-81
2022/11/24 07:07:34;;;;;;;6.20;1.63;;;28.40;99.90;;;;;;5068365;28;20207;-82
2022/11/24 07:10:06;;;;;;;6.65;1.40;;;28.50;99.90;;;;;;5052783;28;20193;-82
2022/11/24 07:12:38;;;;;;;6.05;1.50;;;29.30;99.10;;;;;;5058104;28;20202;-81
2022/11/24 07:15:13;;;;;;;4.40;1.50;;;28.80;98.80;;;;;;5075294;28;20768;-81
2022/11/24 07:17:44;;;;;;;6.47;1.38;;;28.50;99.60;;;;;;5079448;28;20230;-80
2022/11/24 07:20:15;;;;;;;6.30;1.40;;;28.20;99.90;;;;;;5074016;28;20686;-81
2022/11/24 07:22:46;;;;;;;5.03;1.42;;;27.50;99.90;;;;;;5074431;28;20566;-81
2022/11/24 07:25:17;;;;;;;3.53;1.25;;;26.80;99.90;;;;;;5073912;28;20203;-81
2022/11/24 07:27:47;;;;;;;6.75;1.33;;;26.30;99.90;;;;;;5067642;28;20200;-81
2022/11/24 07:30:20;;;;;;;3.65;1.20;;;25.90;99.90;;;;;;5059321;28;20192;-81
2022/11/24 07:32:51;;;;;;;6.80;1.38;;;25.80;99.90;;;;;;5058149;28;20193;-81
2022/11/24 07:35:22;;;;;;;5.50;1.30;;;25.70;99.90;;;;;;5053192;28;20200;-82
2022/11/24 07:37:55;;;;;;;5.95;1.65;;;25.70;99.90;;;;;;5070252;28;20200;-82
2022/11/24 07:40:26;;;;;;;6.53;1.20;;;25.90;99.90;;;;;;5072184;28;20196;-82
2022/11/24 07:42:57;;;;;;;5.00;1.30;;;25.70;99.90;;;;;;5055354;28;20212;-81
2022/11/24 07:45:30;;;;;;;5.38;1.50;;;25.40;99.90;;;;;;5063924;28;20199;-82
2022/11/24 07:48:01;;;;;;;4.95;1.30;;;25.00;99.90;;;;;;5072623;28;20207;-82
2022/11/24 07:50:32;;;;;;;4.80;1.30;;;24.90;99.90;;;;;;5072682;28;20269;-82
2022/11/24 07:53:05;;;;;;;8.35;1.50;;;25.00;99.90;;;;;;5072058;28;20238;-82
2022/11/24 07:55:35;;;;;;;5.82;1.60;;;24.70;99.90;;;;;;5070601;28;20578;-82
2022/11/24 07:58:06;;;;;;;5.80;1.52;;;24.40;99.90;;;;;;5072080;28;20206;-82
2022/11/24 08:00:39;;;;;;;7.68;1.77;;;24.10;99.90;;;;;;5072101;28;20202;-82
2022/11/24 08:03:10;;;;;;;6.72;1.75;;;23.90;99.90;;;;;;5071145;28;20330;-82
2022/11/24 08:05:41;;;;;;;7.15;1.67;;;23.80;99.90;;;;;;5071766;28;20241;-81
2022/11/24 08:08:12;;;;;;;5.60;1.60;;;23.60;99.90;;;;;;5072031;28;20662;-81
2022/11/24 08:10:43;;;;;;;7.43;1.67;;;23.50;99.90;;;;;;5070445;28;20716;-82
2022/11/24 08:13:13;;;;;;;8.48;1.92;;;23.40;99.90;;;;;;5071564;28;20219;-80
2022/11/24 08:15:46;;;;;;;7.35;1.70;;;23.30;99.90;;;;;;5072578;28;20199;-80
2022/11/24 08:18:17;;;;;;;10.35;1.85;;;23.20;99.90;;;;;;5071767;28;20744;-81
2022/11/24 08:20:48;;;;;;;6.07;1.73;;;23.20;99.90;;;;;;5052210;28;20257;-80
2022/11/24 08:23:18;;;;;;;7.40;1.77;;;23.00;99.90;;;;;;5068520;28;20677;-81
2022/11/24 08:25:49;;;;;;;6.90;1.80;;;23.00;99.90;;;;;;5072326;28;20573;-81
2022/11/24 08:28:20;;;;;;;7.32;1.75;;;22.90;99.90;;;;;;5072837;28;20581;-82
2022/11/24 08:30:53;;;;;;;8.10;1.80;;;22.80;99.90;;;;;;5072090;28;20602;-81
2022/11/24 08:33:23;;;;;;;7.18;1.77;;;22.80;99.90;;;;;;5083485;28;20251;-81
2022/11/24 08:35:54;;;;;;;10.23;2.25;;;22.80;99.90;;;;;;5066425;28;20245;-82
2022/11/24 08:38:25;;;;;;;11.07;2.08;;;22.80;99.90;;;;;;5088099;28;20199;-81
2022/11/24 08:40:57;;;;;;;10.95;2.05;;;22.80;99.90;;;;;;5067203;28;20208;-81
2022/11/24 08:43:28;;;;;;;8.48;1.90;;;22.70;99.90;;;;;;5063340;28;20685;-82
2022/11/24 08:46:02;;;;;;;10.32;2.17;;;22.70;99.90;;;;;;5071020;28;20634;-80
2022/11/24 08:48:34;;;;;;;7.30;1.80;;;22.60;99.90;;;;;;5067374;28;20198;-82
2022/11/24 08:51:10;;;;;;;7.63;1.90;;;22.40;99.90;;;;;;5054637;28;20315;-82
2022/11/24 08:53:42;;;;;;;6.03;1.80;;;22.40;99.90;;;;;;5051023;28;20721;-82
2022/11/24 08:56:14;;;;;;;6.03;2.20;;;22.30;99.90;;;;;;5055008;28;20198;-82
2022/11/24 08:58:46;;;;;;;5.03;1.50;;;22.30;99.90;;;;;;5071126;28;20195;-82
2022/11/24 09:01:19;;;;;;;6.90;2.05;;;22.30;99.90;;;;;;5067840;28;20208;-83
2022/11/24 09:03:51;;;;;;;6.30;1.50;;;22.30;99.90;;;;;;5062280;28;20231;-83
2022/11/24 09:06:51;;;;;;;7.43;1.67;;;22.30;99.90;;;;;;5076524;28;20204;-83
2022/11/24 09:12:28;;;;;;;7.22;1.75;;;22.30;99.90;;;;;;5068544;28;20220;-83
2022/11/24 09:15:04;;;;;;;6.22;1.98;;;22.20;99.90;;;;;;5073991;28;20962;-83
2022/11/24 09:17:38;;;;;;;7.55;1.85;;;22.20;99.90;;;;;;5089364;28;20234;-83
2022/11/24 09:20:12;;;;;;;7.25;1.70;;;22.20;99.90;;;;;;5089684;28;20187;-83
2022/11/24 09:22:43;;;;;;;7.13;1.83;;;22.20;99.90;;;;;;5085872;28;20247;-84
2022/11/24 09:25:15;;;;;;;6.78;1.60;;;22.20;99.90;;;;;;5087517;28;20735;-82
2022/11/24 09:27:49;;;;;;;8.55;2.00;;;22.10;99.90;;;;;;5077149;28;20563;-83
2022/11/24 09:30:20;;;;;;;9.20;1.85;;;22.10;99.90;;;;;;5085884;28;20342;-82
2022/11/24 09:32:59;;;;;;;6.05;1.75;;;22.10;99.90;;;;;;5087261;28;20216;-84
2022/11/24 09:35:39;;;;;;;8.18;1.95;;;22.10;99.90;;;;;;5091417;28;20188;-83
2022/11/24 09:38:12;;;;;;;9.98;2.30;;;22.10;99.90;;;;;;5083817;28;20222;-83
2022/11/24 09:40:43;;;;;;;9.50;2.00;;;22.10;99.90;;;;;;5082933;28;20207;-82
2022/11/24 09:43:31;;;;;;;9.80;2.17;;;22.00;99.90;;;;;;5063530;28;20569;-83
2022/11/24 09:46:10;;;;;;;5.68;1.60;;;22.00;99.90;;;;;;5075374;28;20559;-83
2022/11/24 09:48:44;;;;;;;8.93;1.70;;;22.10;99.90;;;;;;5071011;28;20219;-82
2022/11/24 09:51:17;;;;;;;9.65;1.95;;;22.00;99.90;;;;;;5074811;28;20222;-82
2022/11/24 09:53:51;;;;;;;9.90;1.83;;;22.10;99.90;;;;;;5071090;28;20310;-82
2022/11/24 09:56:24;;;;;;;13.90;2.13;;;22.00;99.90;;;;;;5080881;28;20661;-82
2022/11/24 09:59:01;;;;;;;8.43;2.10;;;22.00;99.90;;;;;;5077138;28;20196;-83
2022/11/24 10:01:36;;;;;;;4.47;1.55;;;21.90;99.90;;;;;;5079877;28;20658;-82
2022/11/24 10:04:46;;;;;;;6.93;1.80;;;21.90;99.90;;;;;;5077655;28;20211;-82
2022/11/24 10:07:24;;;;;;;9.35;1.40;;;21.90;99.90;;;;;;5078166;28;20188;-83
2022/11/24 10:10:03;;;;;;;9.15;2.00;;;21.90;99.90;;;;;;5067863;28;20565;-83
2022/11/24 10:12:50;;;;;;;10.43;1.95;;;21.90;99.90;;;;;;5057796;28;20307;-83
2022/11/24 10:15:27;;;;;;;11.10;2.00;;;22.00;99.90;;;;;;5068004;28;20671;-82
2022/11/24 10:18:22;;;;;;;10.25;1.83;;;22.00;99.90;;;;;;5079401;28;20218;-82
2022/11/24 10:21:03;;;;;;;7.00;1.92;;;22.10;99.90;;;;;;5076392;28;20200;-81
2022/11/24 10:24:02;;;;;;;5.55;1.48;;;22.00;99.90;;;;;;5078238;28;20730;-82
2022/11/24 10:26:37;;;;;;;9.05;1.73;;;22.00;99.90;;;;;;5058015;28;20207;-81
2022/11/24 10:29:23;;;;;;;9.40;1.90;;;21.90;99.90;;;;;;5054432;28;20200;-82
2022/11/24 10:31:57;;;;;;;5.82;1.27;;;21.90;99.90;;;;;;5049694;28;20216;-82
2022/11/24 10:34:35;;;;;;;12.02;2.47;;;21.90;99.90;;;;;;5077169;28;20190;-81
2022/11/24 10:37:15;;;;;;;8.95;1.83;;;21.90;99.90;;;;;;5071426;28;20517;-81
2022/11/24 10:39:55;;;;;;;11.07;1.73;;;21.90;99.90;;;;;;5056821;28;20210;-81
2022/11/24 10:42:30;;;;;;;4.18;1.20;;;21.90;99.90;;;;;;5059025;28;20617;-81
2022/11/24 10:45:06;;;;;;;6.60;1.70;;;21.90;99.90;;;;;;5059206;28;20192;-82
2022/11/24 10:47:37;;;;;;;7.45;1.83;;;21.90;99.90;;;;;;5087267;28;20194;-82
2022/11/24 10:50:20;;;;;;;6.00;1.60;;;21.90;99.90;;;;;;5071387;28;20239;-81
2022/11/24 10:52:59;;;;;;;6.70;1.70;;;21.80;99.90;;;;;;5070393;28;20235;-81
2022/11/24 10:55:54;;;;;;;8.13;1.48;;;21.80;99.90;;;;;;5077222;28;20214;-81
2022/11/24 10:58:27;;;;;;;8.77;1.85;;;21.80;99.90;;;;;;5078748;28;20223;-82
2022/11/24 11:00:59;;;;;;;8.07;2.00;;;21.80;99.90;;;;;;5080594;28;20670;-81
2022/11/24 11:03:33;;;;;;;8.85;1.55;;;21.80;99.90;;;;;;5071585;28;20257;-82
2022/11/24 11:06:12;;;;;;;7.32;1.95;;;21.80;99.90;;;;;;5069276;28;20219;-83
2022/11/24 11:08:48;;;;;;;7.53;1.80;;;21.70;99.90;;;;;;5079953;28;20717;-85
2022/11/24 11:11:23;;;;;;;7.10;1.50;;;21.70;99.90;;;;;;5061600;28;20574;-82
2022/11/24 11:13:56;;;;;;;7.30;1.98;;;21.70;99.90;;;;;;5068566;28;20692;-84
2022/11/24 11:16:30;;;;;;;4.63;1.65;;;21.70;99.90;;;;;;5074610;28;20209;-84
2022/11/24 11:19:03;;;;;;;6.80;1.42;;;21.60;99.90;;;;;;5074814;28;20204;-83
2022/11/24 11:21:39;;;;;;;6.85;1.40;;;21.70;99.90;;;;;;5070891;28;20221;-82
2022/11/24 11:24:18;;;;;;;7.30;1.50;;;21.60;99.90;;;;;;5071795;28;20196;-82
2022/11/24 11:27:00;;;;;;;6.47;1.42;;;21.70;99.90;;;;;;5058512;28;20223;-81
2022/11/24 11:29:32;;;;;;;8.27;1.73;;;21.70;99.90;;;;;;5066862;28;20655;-82
2022/11/24 11:32:05;;;;;;;7.47;1.58;;;21.70;99.90;;;;;;5064277;28;20220;-84
2022/11/24 11:34:38;;;;;;;6.45;1.55;;;21.70;99.90;;;;;;5068539;28;20223;-84
2022/11/24 11:37:13;;;;;;;10.30;1.67;;;21.70;99.90;;;;;;5078602;28;20206;-84
2022/11/24 11:39:49;;;;;;;8.40;1.83;;;21.70;99.90;;;;;;5072172;28;20220;-82
2022/11/24 11:42:26;;;;;;;8.02;1.65;;;21.70;99.90;;;;;;5067132;28;20214;-83
2022/11/24 11:45:01;;;;;;;9.38;1.95;;;21.70;99.90;;;;;;5064625;28;20330;-83
2022/11/24 11:47:38;;;;;;;9.00;1.88;;;21.60;99.90;;;;;;5071246;28;20677;-82
2022/11/24 11:50:15;;;;;;;7.20;1.80;;;21.60;99.90;;;;;;5065102;28;20215;-82
2022/11/24 11:53:02;;;;;;;8.05;1.70;;;21.60;99.90;;;;;;5090746;28;20227;-83
2022/11/24 11:55:45;;;;;;;7.18;1.80;;;21.70;99.90;;;;;;5052221;28;20181;-83
2022/11/24 11:58:44;;;;;;;6.80;1.80;;;21.50;99.90;;;;;;5056134;28;20205;-83
2022/11/24 12:01:36;;;;;;;10.95;1.88;;;21.60;99.90;;;;;;5061439;28;20262;-83
2022/11/24 12:04:17;;;;;;;5.60;1.30;;;21.60;99.90;;;;;;5071184;28;20241;-84
2022/11/24 12:07:03;;;;;;;9.32;1.67;;;21.50;99.90;;;;;;5066596;28;20193;-83
2022/11/24 12:09:47;;;;;;;5.85;1.50;;;21.50;99.90;;;;;;5051939;28;20227;-83
2022/11/24 12:12:42;;;;;;;6.88;1.40;;;21.50;99.90;;;;;;5051248;28;20234;-83
2022/11/24 12:15:18;;;;;;;5.32;1.30;;;21.50;99.90;;;;;;5053826;28;20202;-83
2022/11/24 12:17:58;;;;;;;4.78;1.15;;;21.40;99.90;;;;;;5059072;28;20288;-83
2022/11/24 12:20:45;;;;;;;5.78;1.48;;;21.40;99.90;;;;;;5064688;28;21001;-83
2022/11/24 12:23:27;;;;;;;5.93;1.52;;;21.40;99.90;;;;;;5065210;28;20197;-83
2022/11/24 12:26:06;;;;;;;5.05;1.45;;;21.40;99.90;;;;;;5056369;28;20196;-82
2022/11/24 12:28:49;;;;;;;6.28;1.65;;;21.40;99.90;;;;;;5064181;28;20196;-81
2022/11/24 12:31:33;;;;;;;2.88;1.10;;;21.30;99.90;;;;;;5053243;28;20200;-81
2022/11/24 12:34:40;;;;;;;7.60;1.80;;;21.20;99.90;;;;;;5060812;28;20509;-81
2022/11/24 12:37:33;;;;;;;5.47;1.50;;;21.30;99.90;;;;;;5074827;28;20202;-82
2022/11/24 12:40:12;;;;;;;5.30;1.50;;;21.30;99.90;;;;;;5061540;28;20216;-83
2022/11/24 12:42:52;;;;;;;5.18;1.85;;;21.40;99.90;;;;;;5052171;28;20185;-83
2022/11/24 12:45:34;;;;;;;6.03;1.48;;;21.40;99.90;;;;;;5064932;28;20203;-81
2022/11/24 12:48:26;;;;;;;7.07;1.58;;;21.40;99.90;;;;;;5052962;28;20536;-82
2022/11/24 12:50:58;;;;;;;5.25;1.40;;;21.30;99.90;;;;;;5064132;28;20209;-81
2022/11/24 12:53:33;;;;;;;5.20;1.52;;;21.30;99.90;;;;;;5061921;28;20240;-81
2022/11/24 12:56:11;;;;;;;5.65;1.60;;;21.30;99.90;;;;;;5065330;28;20575;-81
2022/11/24 12:58:49;;;;;;;5.22;1.50;;;21.20;99.90;;;;;;5069476;28;20238;-81
2022/11/24 13:01:33;;;;;;;5.38;1.40;;;21.20;99.90;;;;;;5073204;28;20195;-81
2022/11/24 13:04:11;;;;;;;6.07;1.40;;;21.30;99.90;;;;;;5055147;28;20216;-81
2022/11/24 13:06:54;;;;;;;6.05;1.27;;;21.20;99.90;;;;;;5059451;28;20206;-82
2022/11/24 13:09:25;;;;;;;4.78;1.52;;;21.30;99.90;;;;;;5070752;28;20200;-81
2022/11/24 13:12:06;;;;;;;7.70;1.60;;;21.30;99.90;;;;;;5067344;28;20220;-82
2022/11/24 13:14:39;;;;;;;5.13;1.33;;;21.30;99.90;;;;;;5059443;28;20198;-81
2022/11/24 13:17:29;;;;;;;6.03;1.52;;;21.30;99.90;;;;;;5069797;28;20195;-82
2022/11/24 13:20:17;;;;;;;6.80;1.58;;;21.30;99.90;;;;;;5049972;28;20201;-81
2022/11/24 13:22:54;;;;;;;5.03;1.50;;;21.30;99.90;;;;;;5067301;28;20204;-81
2022/11/24 13:25:27;;;;;;;5.85;1.48;;;21.30;99.90;;;;;;5059849;28;20199;-83
2022/11/24 13:27:59;;;;;;;5.82;1.65;;;21.30;99.90;;;;;;5051838;28;20247;-80